Date,TemperatureHighF,TemperatureAvgF,TemperatureLowF,DewpointHighF,DewpointAvgF,DewpointLowF,HumidityHigh,HumidityAvg,HumidityLow,PressureMaxIn,PressureMinIn,WindSpeedMaxMPH,WindSpeedAvgMPH,GustSpeedMaxMPH,PrecipitationSumIn
2013-1-1,42,33,29,-100,-100,-100,0,0,100,0.00,40.00,0,-999,0,0.00
2013-1-2,46,34,27,-100,-100,-100,0,0,100,0.00,40.00,0,-999,0,0.00
2013-1-3,46,34,28,-100,-100,-100,0,0,100,0.00,40.00,0,-999,0,0.00
2013-1-4,49,36,29,-100,-100,-100,0,0,100,0.00,40.00,0,-999,0,0.00
2013-1-5,54,40,31,-100,-100,-100,0,0,100,0.00,40.00,0,-999,0,0.00
2013-1-6,46,39,32,-100,-100,-100,0,0,100,0.00,40.00,0,-999,0,0.01
2013-1-7,54,40,32,-100,-100,-100,0,0,100,0.00,40.00,0,-999,0,0.01
2013-1-8,52,40,33,-100,-100,-100,0,0,100,0.00,40.00,0,-999,0,0.00
2013-1-9,52,42,34,-100,-100,-100,0,0,100,0.00,40.00,0,-999,0,0.69
2013-1-10,39,32,28,-100,-100,-100,0,0,100,0.00,40.00,0,-999,0,0.68
2013-1-11,40,30,24,-100,-100,-100,0,0,100,0.00,40.00,0,-999,0,0.00
2013-1-12,39,28,20,-100,-100,-100,0,0,100,0.00,40.00,0,-999,0,0.00
2013-1-13,39,28,20,-100,-100,-100,0,0,100,0.00,40.00,0,-999,0,0.00
2013-1-14,43,31,22,-100,-100,-100,0,0,100,0.00,40.00,0,-999,0,0.00
2013-1-15,44,31,24,-100,-100,-100,0,0,100,0.00,40.00,0,-999,0,0.00
2013-1-16,49,34,27,-100,-100,-100,0,0,100,0.00,40.00,0,-999,0,0.00
2013-1-17,53,36,27,-100,-100,-100,0,0,100,0.00,40.00,0,-999,0,0.00
2013-1-18,57,38,29,-100,-100,-100,0,0,100,0.00,40.00,0,-999,0,0.00
2013-1-19,56,36,30,-100,-100,-100,0,0,100,0.00,40.00,0,-999,0,0.00
2013-1-20,58,39,30,-100,-100,-100,0,0,100,0.00,40.00,0,-999,0,0.00
2013-4-4,53,52,52,-100,-100,-100,0,0,100,0.00,40.00,0,-999,0,0.01
2013-4-5,60,53,48,-100,-100,-100,0,0,100,0.00,40.00,0,-999,0,0.01
2013-4-6,61,53,46,-100,-100,-100,0,0,100,0.00,40.00,0,-999,0,0.01
2013-4-7,63,53,45,-100,-100,-100,0,0,100,0.00,40.00,0,-999,0,0.02
2013-4-8,61,46,38,-100,-100,-100,0,0,100,0.00,40.00,0,-999,0,0.50
2013-4-9,70,52,31,-100,-100,-100,0,0,100,0.00,40.00,0,-999,0,0.03
2013-4-10,78,63,41,-100,-100,-100,0,0,100,0.00,40.00,0,-999,0,0.00
2013-4-11,72,59,44,-100,-100,-100,0,0,100,0.00,40.00,0,-999,0,0.00
2013-4-12,75,59,41,-100,-100,-100,0,0,100,0.00,40.00,0,-999,0,0.00
2013-4-13,74,60,44,-100,-100,-100,0,0,100,0.00,40.00,0,-999,0,0.00
2013-4-14,65,54,40,-100,-100,-100,0,0,100,0.00,40.00,0,-999,0,0.00
2013-4-15,54,48,38,-100,-100,-100,0,0,100,0.00,40.00,0,-999,0,0.00
2013-4-16,57,45,31,-100,-100,-100,0,0,100,0.00,40.00,0,-999,0,0.00
2013-4-17,64,48,29,-100,-100,-100,0,0,100,0.00,40.00,0,-999,0,0.00
2013-4-18,69,55,37,-100,-100,-100,0,0,100,0.00,40.00,0,-999,0,0.00
2013-4-19,74,59,40,-100,-100,-100,0,0,100,0.00,40.00,0,-999,0,0.00
2013-4-20,76,61,44,-100,-100,-100,0,0,100,0.00,40.00,0,-999,0,0.00
2013-4-21,79,62,45,-100,-100,-100,0,0,100,0.00,40.00,0,-999,0,0.00
2013-4-22,80,65,47,-100,-100,-100,0,0,100,0.00,40.00,0,-999,0,0.00
2013-4-23,79,64,42,-100,-100,-100,0,0,100,0.00,40.00,0,-999,0,0.00
2013-4-24,80,65,42,-100,-100,-100,0,0,100,0.00,40.00,0,-999,0,0.00
2013-4-25,71,58,39,-100,-100,-100,0,0,100,0.00,40.00,0,-999,0,0.00
2013-4-26,77,61,43,-100,-100,-100,0,0,100,0.00,40.00,0,-999,0,0.00
2013-4-27,82,64,48,-100,-100,-100,0,0,100,0.00,40.00,0,-999,0,0.00
2013-4-29,82,68,50,-100,-100,-100,0,0,100,0.00,40.00,0,-999,0,0.00
2013-4-30,78,69,52,-100,-100,-100,0,0,100,0.00,40.00,0,-999,0,0.00
2013-5-1,84,66,40,-100,-100,-100,0,0,100,0.00,40.00,0,-999,0,0.00
2013-5-2,84,67,42,-100,-100,-100,0,0,100,0.00,40.00,0,-999,0,0.00
2013-5-3,83,66,49,-100,-100,-100,0,0,100,0.00,40.00,0,-999,0,0.00
2013-5-4,82,69,45,-100,-100,-100,0,0,100,0.00,40.00,0,-999,0,0.00
2013-5-5,67,58,45,-100,-100,-100,0,0,100,0.00,40.00,0,-999,0,0.00
2013-5-6,63,55,49,-100,-100,-100,0,0,100,0.00,40.00,0,-999,0,0.48
2013-5-7,56,54,51,-100,-100,-100,0,0,100,0.00,40.00,0,-999,0,0.31
2013-5-8,64,57,53,-100,-100,-100,0,0,100,0.00,40.00,0,-999,0,0.07
2013-5-10,81,68,50,-100,-100,-100,0,0,100,0.00,40.00,0,-999,0,0.00
2013-5-11,85,70,53,-100,-100,-100,0,0,100,0.00,40.00,0,-999,0,0.00
2013-5-12,88,73,54,-100,-100,-100,0,0,100,0.00,40.00,0,-999,0,0.00
2013-5-13,87,72,52,-100,-100,-100,0,0,100,0.00,40.00,0,-999,0,0.00
2013-5-14,83,71,53,-100,-100,-100,0,0,100,0.00,40.00,0,-999,0,0.00
2013-5-15,74,65,50,-100,-100,-100,0,0,100,0.00,40.00,0,-999,0,0.00
2013-5-16,66,57,50,-100,-100,-100,0,0,100,0.00,40.00,0,-999,0,0.01
2013-5-17,67,55,42,-100,-100,-100,0,0,100,0.00,40.00,0,-999,0,0.01
2013-5-18,76,60,43,-100,-100,-100,0,0,100,0.00,40.00,0,-999,0,0.00
2013-5-19,77,63,48,-100,-100,-100,0,0,100,0.00,40.00,0,-999,0,0.00
2013-5-20,83,68,46,-100,-100,-100,0,0,100,0.00,40.00,0,-999,0,0.00
2013-5-21,75,67,51,-100,-100,-100,0,0,100,0.00,40.00,0,-999,0,0.00
2013-5-22,63,50,34,-100,-100,-100,0,0,100,0.00,40.00,0,-999,0,0.00
2013-5-23,66,52,36,-100,-100,-100,0,0,100,0.00,40.00,0,-999,0,0.00
2013-5-24,72,58,40,-100,-100,-100,0,0,100,0.00,40.00,0,-999,0,0.00
2013-5-25,71,62,44,-100,-100,-100,0,0,100,0.00,40.00,0,-999,0,0.00
2013-5-26,70,62,42,-100,-100,-100,0,0,100,0.00,40.00,0,-999,0,0.00
2013-5-27,61,54,46,-100,-100,-100,0,0,100,0.00,40.00,0,-999,0,0.09
2013-5-28,70,58,52,-100,-100,-100,0,0,100,0.00,40.00,0,-999,0,0.18
2013-5-29,72,60,53,-100,-100,-100,0,0,100,0.00,40.00,0,-999,0,0.05
2013-5-30,54,51,46,-100,-100,-100,0,0,100,0.00,40.00,0,-999,0,0.02
2013-5-31,86,82,63,-100,-100,-100,0,0,100,0.00,40.00,0,-999,0,0.00
2013-6-1,87,81,53,-100,-100,-100,0,0,100,0.00,40.00,0,-999,0,0.00
2013-6-2,89,80,55,-100,-100,-100,0,0,100,0.00,40.00,0,-999,0,21.45
2013-6-3,89,79,56,-100,-100,-100,0,0,100,0.00,40.00,0,-999,0,0.00
2013-6-4,83,72,57,-100,-100,-100,0,0,100,0.00,40.00,0,-999,0,0.00
2013-6-5,85,74,55,-100,-100,-100,0,0,100,0.00,40.00,0,-999,0,0.00
2013-6-6,90,75,59,-100,-100,-100,0,0,100,0.00,40.00,0,-999,0,0.00
2013-6-7,101,79,57,-100,-100,-100,0,0,100,0.00,40.00,0,-999,0,0.00
2013-6-8,101,83,63,-100,-100,-100,0,0,100,0.00,40.00,0,-999,0,0.00
2013-6-9,87,76,62,-100,-100,-100,0,0,100,0.00,40.00,0,-999,0,0.00
2013-6-10,69,62,54,-100,-100,-100,0,0,100,0.00,40.00,0,-999,0,0.00
2013-6-12,81,72,51,-100,-100,-100,0,0,100,0.00,40.00,0,-999,0,0.00
2013-6-13,77,69,46,-100,-100,-100,0,0,100,0.00,40.00,0,-999,0,0.00
2013-6-14,82,71,47,-100,-100,-100,0,0,100,0.00,40.00,0,-999,0,0.00
2013-6-15,83,75,51,-100,-100,-100,0,0,100,0.00,40.00,0,-999,0,0.00
2013-6-16,83,74,52,-100,-100,-100,0,0,100,0.00,40.00,0,-999,0,0.00
2013-6-17,82,72,49,-100,-100,-100,0,0,100,0.00,40.00,0,-999,0,0.00
2013-6-18,72,64,47,-100,-100,-100,0,0,100,0.00,40.00,0,-999,0,0.00
2013-6-19,72,59,44,-100,-100,-100,0,0,100,0.00,40.00,0,-999,0,0.00
2013-6-20,74,59,47,-100,-100,-100,0,0,100,0.00,40.00,0,-999,0,0.00
2013-6-22,85,82,63,-100,-100,-100,0,0,100,0.00,40.00,0,-999,0,0.00
2013-6-23,72,66,57,-100,-100,-100,0,0,100,0.00,40.00,0,-999,0,0.00
2013-6-24,63,58,56,-100,-100,-100,0,0,100,0.00,40.00,0,-999,0,1.05
2013-6-25,66,60,56,-100,-100,-100,0,0,100,0.00,40.00,0,-999,0,1.44
2013-6-26,82,70,59,-100,-100,-100,0,0,100,0.00,40.00,0,-999,0,0.02
2013-7-7,90,78,58,-100,-100,-100,0,0,100,0.00,40.00,0,-999,0,0.00
2013-7-8,90,78,60,-100,-100,-100,0,0,100,0.00,40.00,0,-999,0,0.00
2013-7-9,93,83,62,-100,-100,-100,0,0,100,0.00,40.00,0,-999,0,0.00
2013-7-10,92,88,64,-100,-100,-100,0,0,100,0.00,40.00,0,-999,0,0.00
2013-7-11,89,85,75,-100,-100,-100,0,0,100,0.00,40.00,0,-999,0,0.00
2013-7-12,86,83,72,-100,-100,-100,0,0,100,0.00,40.00,0,-999,0,0.00
2013-7-13,89,85,59,-100,-100,-100,0,0,100,0.00,40.00,0,-999,0,0.00
2013-7-16,84,79,58,-100,-100,-100,0,0,100,0.00,40.00,0,-999,0,0.00
2013-7-17,87,82,55,-100,-100,-100,0,0,100,0.00,40.00,0,-999,0,0.00
2013-7-18,90,87,73,-100,-100,-100,0,0,100,0.00,40.00,0,-999,0,0.00
2013-7-19,95,91,66,-100,-100,-100,0,0,100,0.00,40.00,0,-999,0,0.00
2013-7-20,97,90,66,-100,-100,-100,0,0,100,0.00,40.00,0,-999,0,0.00
2013-7-21,96,91,73,-100,-100,-100,0,0,100,0.00,40.00,0,-999,0,0.00
2013-7-22,89,86,81,-100,-100,-100,0,0,100,0.00,40.00,0,-999,0,0.00
2013-7-24,91,85,63,-100,-100,-100,0,0,100,0.00,40.00,0,-999,0,0.00
2013-7-25,95,90,71,-100,-100,-100,0,0,100,0.00,40.00,0,-999,0,0.00
2013-7-26,94,87,72,-100,-100,-100,0,0,100,0.00,40.00,0,-999,0,0.00
2013-7-27,91,86,72,-100,-100,-100,0,0,100,0.00,40.00,0,-999,0,0.00
2013-7-28,90,87,78,-100,-100,-100,0,0,100,0.00,40.00,0,-999,0,0.00
2013-7-29,86,84,74,-100,-100,-100,0,0,100,0.00,40.00,0,-999,0,0.00
2013-7-30,88,84,71,-100,-100,-100,0,0,100,0.00,40.00,0,-999,0,0.00
2013-7-31,88,82,62,-100,-100,-100,0,0,100,0.00,40.00,0,-999,0,0.00
2013-8-1,83,79,60,-100,-100,-100,0,0,100,0.00,40.00,0,-999,0,0.00
2013-8-2,85,78,57,-100,-100,-100,0,0,100,0.00,40.00,0,-999,0,0.00
2013-8-3,88,81,60,-100,-100,-100,0,0,100,0.00,40.00,0,-999,0,0.00
2013-8-4,87,80,56,-100,-100,-100,0,0,100,0.00,40.00,0,-999,0,0.00
2013-8-5,88,85,78,-100,-100,-100,0,0,100,0.00,40.00,0,-999,0,0.00
2013-8-6,86,83,59,-100,-100,-100,0,0,100,0.00,40.00,0,-999,0,0.00
2013-8-7,79,74,59,-100,-100,-100,0,0,100,0.00,40.00,0,-999,0,0.00
2013-8-8,79,75,65,-100,-100,-100,0,0,100,0.00,40.00,0,-999,0,0.00
2013-8-9,80,74,54,-100,-100,-100,0,0,100,0.00,40.00,0,-999,0,0.00
2013-8-10,82,76,52,-100,-100,-100,0,0,100,0.00,40.00,0,-999,0,0.00
2013-8-11,84,79,56,-100,-100,-100,0,0,100,0.00,40.00,0,-999,0,0.00
2013-8-12,86,83,68,-100,-100,-100,0,0,100,0.00,40.00,0,-999,0,0.00
2013-8-13,90,80,59,-100,-100,-100,0,0,100,0.00,40.00,0,-999,0,0.00
2013-8-14,90,80,61,-100,-100,-100,0,0,100,0.00,40.00,0,-999,0,0.00
2013-8-15,92,90,87,-100,-100,-100,0,0,100,0.00,40.00,0,-999,0,0.00
2013-8-16,92,89,80,-100,-100,-100,0,0,100,0.00,40.00,0,-999,0,0.00
2013-8-17,92,88,65,-100,-100,-100,0,0,100,0.00,40.00,0,-999,0,0.00
2013-8-18,95,84,64,-100,-100,-100,0,0,100,0.00,40.00,0,-999,0,0.00
2013-8-19,89,82,69,-100,-100,-100,0,0,100,0.00,40.00,0,-999,0,0.00
2013-8-20,94,90,82,-100,-100,-100,0,0,100,0.00,40.00,0,-999,0,0.00
2013-8-21,87,85,69,-100,-100,-100,0,0,100,0.00,40.00,0,-999,0,0.00
2013-8-27,85,82,79,-100,-100,-100,0,0,100,0.00,40.00,0,-999,0,0.00
2013-8-28,87,85,78,-100,-100,-100,0,0,100,0.00,40.00,0,-999,0,0.00
2013-8-29,87,85,78,-100,-100,-100,0,0,100,0.00,40.00,0,-999,0,0.00
2013-8-30,91,88,78,-100,-100,-100,0,0,100,0.00,40.00,0,-999,0,0.00
2013-8-31,91,87,79,-100,-100,-100,0,0,100,0.00,40.00,0,-999,0,0.00
2013-9-1,86,80,70,-100,-100,-100,0,0,100,0.00,40.00,0,-999,0,0.00
2013-9-2,70,66,63,-100,-100,-100,0,0,100,0.00,40.00,0,-999,0,1.13
2013-9-3,80,70,63,-100,-100,-100,0,0,100,0.00,40.00,0,-999,0,0.01
2013-9-4,83,76,57,-100,-100,-100,0,0,100,0.00,40.00,0,-999,0,0.00
2013-9-5,80,75,56,-100,-100,-100,0,0,100,0.00,40.00,0,-999,0,0.00
2013-9-6,88,78,55,-100,-100,-100,0,0,100,0.00,40.00,0,-999,0,0.00
2013-9-7,90,84,59,-100,-100,-100,0,0,100,0.00,40.00,0,-999,0,0.00
2013-9-8,93,90,66,-100,-100,-100,0,0,100,0.00,40.00,0,-999,0,0.00
2013-9-9,97,91,66,-100,-100,-100,0,0,100,0.00,40.00,0,-999,0,0.00
2013-9-10,91,87,79,-100,-100,-100,0,0,100,0.00,40.00,0,-999,0,0.00
2013-9-11,84,72,59,-100,-100,-100,0,0,100,0.00,40.00,0,-999,0,0.00
2013-9-12,83,70,55,-100,-100,-100,0,0,100,0.00,40.00,0,-999,0,0.00
2013-9-13,87,76,59,-100,-100,-100,0,0,100,0.00,40.00,0,-999,0,0.00
2013-9-14,88,79,64,-100,-100,-100,0,0,100,0.00,40.00,0,-999,0,0.00
2013-9-15,84,79,64,-100,-100,-100,0,0,100,0.00,40.00,0,-999,0,0.00
2013-9-16,83,81,77,-100,-100,-100,0,0,100,0.00,40.00,0,-999,0,0.00
2013-9-17,73,68,55,-100,-100,-100,0,0,100,0.00,40.00,0,-999,0,0.00
2013-9-18,57,54,52,-100,-100,-100,0,0,100,0.00,40.00,0,-999,0,0.00
2013-9-19,87,71,50,-100,-100,-100,0,0,100,0.00,40.00,0,-999,0,0.00
2013-9-20,80,75,61,-100,-100,-100,0,0,100,0.00,40.00,0,-999,0,0.00
2013-9-21,62,56,48,-100,-100,-100,0,0,100,0.00,40.00,0,-999,0,0.71
2013-9-22,68,53,43,-100,-100,-100,0,0,100,0.00,40.00,0,-999,0,0.18
2013-9-23,76,62,47,-100,-100,-100,0,0,100,0.00,40.00,0,-999,0,0.00
2013-9-24,72,63,53,-100,-100,-100,0,0,100,0.00,40.00,0,-999,0,0.00
2013-9-25,65,56,46,-100,-100,-100,0,0,100,0.00,40.00,0,-999,0,0.00
2013-9-26,70,62,46,-100,-100,-100,0,0,100,0.00,40.00,0,-999,0,0.00
2013-9-27,72,66,46,-100,-100,-100,0,0,100,0.00,40.00,0,-999,0,0.00
2013-9-28,77,62,47,-100,-100,-100,0,0,100,0.00,40.00,0,-999,0,0.00
2013-9-29,73,66,57,-100,-100,-100,0,0,100,0.00,40.00,0,-999,0,0.00
2013-9-30,71,63,57,-100,-100,-100,0,0,100,0.00,40.00,0,-999,0,0.00
2013-10-1,72,62,51,-100,-100,-100,0,0,100,0.00,40.00,0,-999,0,0.00
2013-10-2,71,58,48,-100,-100,-100,0,0,100,0.00,40.00,0,-999,0,0.00
2013-10-4,78,73,63,-100,-100,-100,0,0,100,0.00,40.00,0,-999,0,0.00
2013-10-5,78,71,54,-100,-100,-100,0,0,100,0.00,40.00,0,-999,0,0.00
2013-10-6,82,75,56,-100,-100,-100,0,0,100,0.00,40.00,0,-999,0,0.00
2013-10-7,79,74,53,-100,-100,-100,0,0,100,0.00,40.00,0,-999,0,0.00
2013-10-8,72,67,52,-100,-100,-100,0,0,100,0.00,40.00,0,-999,0,0.00
2013-10-9,68,59,46,-100,-100,-100,0,0,100,0.00,40.00,0,-999,0,0.00
2013-10-10,67,54,41,-100,-100,-100,0,0,100,0.00,40.00,0,-999,0,0.00
2013-10-11,70,60,46,-100,-100,-100,0,0,100,0.00,40.00,0,-999,0,0.00
2013-10-12,70,64,46,-100,-100,-100,0,0,100,0.00,40.00,0,-999,0,0.00
2013-10-18,77,74,50,-100,-100,-100,0,0,100,0.00,40.00,0,-999,0,0.00
2013-10-19,80,77,69,-100,-100,-100,0,0,100,0.00,40.00,0,-999,0,0.00
2013-10-20,79,76,69,-100,-100,-100,0,0,100,0.00,40.00,0,-999,0,0.00
2013-10-21,79,75,69,-100,-100,-100,0,0,100,0.00,40.00,0,-999,0,0.00
2013-10-22,83,80,77,-100,-100,-100,0,0,100,0.00,40.00,0,-999,0,0.00
2013-10-23,82,79,74,-100,-100,-100,0,0,100,0.00,40.00,0,-999,0,0.00
2013-10-24,78,74,49,-100,-100,-100,0,0,100,0.00,40.00,0,-999,0,0.00
2013-10-25,77,64,44,-100,-100,-100,0,0,100,0.00,40.00,0,-999,0,0.00
2013-10-26,77,75,73,-100,-100,-100,0,0,100,0.00,40.00,0,-999,0,0.00
2013-10-27,73,62,44,-100,-100,-100,0,0,100,0.00,40.00,0,-999,0,0.10
2013-10-28,49,45,41,-100,-100,-100,0,0,100,0.00,40.00,0,-999,0,0.36
2013-10-29,51,46,40,-100,-100,-100,0,0,100,0.00,40.00,0,-999,0,0.01
2013-10-30,59,46,35,-100,-100,-100,0,0,100,0.00,40.00,0,-999,0,0.00
2013-10-31,66,63,59,-100,-100,-100,0,0,100,0.00,40.00,0,-999,0,0.00
2013-11-1,70,62,43,-100,-100,-100,0,0,100,0.00,40.00,0,-999,0,0.00
2013-11-2,69,66,62,-100,-100,-100,0,0,100,0.00,40.00,0,-999,0,0.00
2013-11-3,61,47,37,-100,-100,-100,0,0,100,0.00,40.00,0,-999,0,0.00
2013-11-12,71,62,50,-100,-100,-100,0,0,100,0.00,40.00,0,-999,0,0.00
2013-11-13,71,69,63,-100,-100,-100,0,0,100,0.00,40.00,0,-999,0,0.00
2013-11-14,67,64,58,-100,-100,-100,0,0,100,0.00,40.00,0,-999,0,0.00
2013-11-15,62,55,43,-100,-100,-100,0,0,100,0.00,40.00,0,-999,0,0.00
2013-11-16,58,52,41,-100,-100,-100,0,0,100,0.00,40.00,0,-999,0,0.00
2013-11-17,59,56,38,-100,-100,-100,0,0,100,0.00,40.00,0,-999,0,0.00
2013-11-18,59,52,46,-100,-100,-100,0,0,100,0.00,40.00,0,-999,0,0.00
2013-11-19,54,49,45,-100,-100,-100,0,0,100,0.00,40.00,0,-999,0,0.75
2013-11-20,52,50,47,-100,-100,-100,0,0,100,0.00,40.00,0,-999,0,1.36
2013-11-21,54,48,42,-100,-100,-100,0,0,100,0.00,40.00,0,-999,0,0.33
2013-11-26,58,51,40,-100,-100,-100,0,0,100,0.00,40.00,0,-999,0,0.00
2013-11-27,63,61,60,-100,-100,-100,0,0,100,0.00,40.00,0,-999,0,0.00
2013-11-28,62,57,43,-100,-100,-100,0,0,100,0.00,40.00,0,-999,0,0.00
2013-11-29,60,51,42,-100,-100,-100,0,0,100,0.00,40.00,0,-999,0,0.00
2013-11-30,61,53,41,-100,-100,-100,0,0,100,0.00,40.00,0,-999,0,0.00
2013-12-1,61,55,39,-100,-100,-100,0,0,100,0.00,40.00,0,-999,0,0.00
2013-12-2,61,53,47,-100,-100,-100,0,0,100,0.00,40.00,0,-999,0,0.00
2013-12-3,51,42,28,-100,-100,-100,0,0,100,0.00,40.00,0,-999,0,0.13
2013-12-4,41,31,24,-100,-100,-100,0,0,100,0.00,40.00,0,-999,0,0.01
2013-12-5,40,29,22,-100,-100,-100,0,0,100,0.00,40.00,0,-999,0,0.00
2013-12-6,41,35,22,-100,-100,-100,0,0,100,0.00,40.00,0,-999,0,0.24
2013-12-7,34,31,23,-100,-100,-100,0,0,100,0.00,40.00,0,-999,0,0.72
2013-12-8,32,24,18,-100,-100,-100,0,0,100,0.00,40.00,0,-999,0,0.00
2013-12-9,29,27,22,-100,-100,-100,0,0,100,0.00,40.00,0,-999,0,0.00
2013-12-10,34,29,25,-100,-100,-100,0,0,100,0.00,40.00,0,-999,0,0.00
2013-12-11,30,29,28,-100,-100,-100,0,0,100,0.00,40.00,0,-999,0,0.00
2013-12-13,38,36,30,-100,-100,-100,0,0,100,0.00,40.00,0,-999,0,0.00
2013-12-14,29,29,29,-100,-100,-100,0,0,100,0.00,40.00,0,-999,0,0.00